Contact Info

Augusta Flying Club, Inc

KDNL 161153Z AUTO 24003KT 10SM CLR 02/M06 A2978 RMK AO2 SLP083 70005 T00221061 10072 20022 53007


TAF KDNL 161130Z 1612/1712 28007KT P6SM SKC FM161400 25015G23KT P6SM SKC FM162200 27010G16KT P6SM SKC FM170100 26006KT P6SM SKC

info@augustaflyingclub.com

Send us a message